Portada
METAR-TAF:

METAR-TAF

Aeroports :

Kwajalein, Illes Marshall

latitud: 08-43N, longitud: 167-44E, altitud: 3 m

Observació

L'informe es va fer fa 18 minuts, a les 11:40 UTC
Vent 10 kt del Est/Nord-Est
Temperatura 28°C
Humitat 84%
Pressió 1011 hPa
Visibilitat: 16.1 km
Cel clar

METAR: PKWA 231140Z AUTO 07010KT 10SM CLR 28/25 A2986 RMK AO2 T02770250

Hora: 23:58 (11:58 UTC)

Pronòstic

L'informe es va fer fa 28 minuts, a les 11:30 UTC
Pronòstic vàlid del 23 a les 12 UTC al 24 a les 12 UTC
Vent 10 kt del Est
Visibilitat: 10 km
Núvols disperses a una alçada de 2000 ft
Núvols disperses a una alçada de 5000 ft
xàfecs en les proximitats

TAF: PKWA 231130Z 2312/2412 09010KT P6SM VCSH SCT020 SCT050

Observacions i pronòstics meteorològics de més de 4000 aeroports (METAR i TAF).

Les estacions disponibles són els punts grocs i vermells al mapa.

Posi el ratolí al punt desitjat per veure el nom de l'estació.

Feu clic per veure les observacions i els pronòstics meteorològics.

Per canviar el mapa: feu clic els botons verds amb una creu de color negre per apropar; al botó verd amb un guió per allunyar la imatge; o en les fletxes verdes per a mapes adjacents.


METAR-TAF: